sensor_id;sensor_type;location;lat;lon;timestamp;pressure;altitude;pressure_sealevel;temperature;humidity
46456;BME280;64052;47.466;9.094;2023-04-27T00:04:39;95770.69;;;14.06;59.04
46456;BME280;64052;47.466;9.094;2023-04-27T00:09:41;95767.78;;;14.09;59.34
46456;BME280;64052;47.466;9.094;2023-04-27T00:14:43;95759.53;;;13.94;60.00
46456;BME280;64052;47.466;9.094;2023-04-27T00:19:44;95764.75;;;13.86;60.06
46456;BME280;64052;47.466;9.094;2023-04-27T00:24:46;95756.66;;;13.87;60.27
46456;BME280;64052;47.466;9.094;2023-04-27T00:29:47;95755.91;;;13.95;59.66
46456;BME280;64052;47.466;9.094;2023-04-27T00:34:49;95757.88;;;13.93;59.61
46456;BME280;64052;47.466;9.094;2023-04-27T00:39:50;95749.59;;;13.96;58.86
46456;BME280;64052;47.466;9.094;2023-04-27T00:44:53;95754.63;;;13.81;59.86
46456;BME280;64052;47.466;9.094;2023-04-27T00:49:55;95748.16;;;14.02;59.12
46456;BME280;64052;47.466;9.094;2023-04-27T00:55:01;95739.94;;;14.13;59.66
46456;BME280;64052;47.466;9.094;2023-04-27T01:00:04;95738.09;;;14.05;60.45
46456;BME280;64052;47.466;9.094;2023-04-27T01:05:05;95743.94;;;14.17;59.77
46456;BME280;64052;47.466;9.094;2023-04-27T01:10:07;95749.25;;;14.17;60.45
46456;BME280;64052;47.466;9.094;2023-04-27T01:15:09;95753.78;;;13.99;60.44
46456;BME280;64052;47.466;9.094;2023-04-27T01:20:12;95758.16;;;14.08;60.04
46456;BME280;64052;47.466;9.094;2023-04-27T01:25:16;95755.78;;;13.79;60.41
46456;BME280;64052;47.466;9.094;2023-04-27T01:30:18;95768.09;;;13.88;60.88
46456;BME280;64052;47.466;9.094;2023-04-27T01:35:19;95764.84;;;13.94;60.69
46456;BME280;64052;47.466;9.094;2023-04-27T01:40:21;95759.31;;;13.87;60.95
46456;BME280;64052;47.466;9.094;2023-04-27T01:45:22;95757.81;;;13.67;61.94
46456;BME280;64052;47.466;9.094;2023-04-27T01:50:24;95766.59;;;13.85;61.30
46456;BME280;64052;47.466;9.094;2023-04-27T01:55:25;95772.81;;;13.76;62.35
46456;BME280;64052;47.466;9.094;2023-04-27T02:00:27;95771.81;;;13.77;61.78
46456;BME280;64052;47.466;9.094;2023-04-27T02:05:29;95771.38;;;13.82;61.38
46456;BME280;64052;47.466;9.094;2023-04-27T02:10:30;95771.28;;;13.73;61.64
46456;BME280;64052;47.466;9.094;2023-04-27T02:15:32;95773.88;;;13.83;61.04
46456;BME280;64052;47.466;9.094;2023-04-27T02:20:33;95775.00;;;13.81;61.01
46456;BME280;64052;47.466;9.094;2023-04-27T02:25:36;95768.19;;;13.60;61.54
46456;BME280;64052;47.466;9.094;2023-04-27T02:30:37;95778.41;;;13.55;61.63
46456;BME280;64052;47.466;9.094;2023-04-27T02:35:39;95775.56;;;13.38;62.17
46456;BME280;64052;47.466;9.094;2023-04-27T02:40:41;95773.66;;;13.30;61.87
46456;BME280;64052;47.466;9.094;2023-04-27T02:45:42;95767.56;;;13.30;62.42
46456;BME280;64052;47.466;9.094;2023-04-27T02:50:44;95768.16;;;13.42;62.93
46456;BME280;64052;47.466;9.094;2023-04-27T02:55:46;95764.53;;;13.43;62.10
46456;BME280;64052;47.466;9.094;2023-04-27T03:00:53;95769.00;;;13.42;62.29
46456;BME280;64052;47.466;9.094;2023-04-27T03:05:55;95767.28;;;13.51;61.74
46456;BME280;64052;47.466;9.094;2023-04-27T03:10:56;95759.72;;;13.56;61.38
46456;BME280;64052;47.466;9.094;2023-04-27T03:15:58;95755.63;;;13.44;61.46
46456;BME280;64052;47.466;9.094;2023-04-27T03:21:10;95752.56;;;13.20;60.23
46456;BME280;64052;47.466;9.094;2023-04-27T03:26:13;95751.34;;;13.33;60.84
46456;BME280;64052;47.466;9.094;2023-04-27T03:31:15;95758.16;;;13.17;61.26
46456;BME280;64052;47.466;9.094;2023-04-27T03:36:16;95758.72;;;12.93;60.37
46456;BME280;64052;47.466;9.094;2023-04-27T03:41:18;95756.31;;;13.00;60.75
46456;BME280;64052;47.466;9.094;2023-04-27T03:46:19;95760.13;;;13.15;61.46
46456;BME280;64052;47.466;9.094;2023-04-27T03:51:22;95766.31;;;13.06;60.54
46456;BME280;64052;47.466;9.094;2023-04-27T03:56:24;95772.34;;;12.98;61.00
46456;BME280;64052;47.466;9.094;2023-04-27T04:01:25;95773.91;;;12.91;61.14
46456;BME280;64052;47.466;9.094;2023-04-27T04:06:27;95774.22;;;12.88;62.13
46456;BME280;64052;47.466;9.094;2023-04-27T04:11:29;95782.69;;;12.91;61.30
46456;BME280;64052;47.466;9.094;2023-04-27T04:16:33;95777.66;;;12.88;62.33
46456;BME280;64052;47.466;9.094;2023-04-27T04:21:34;95784.91;;;13.14;61.14
46456;BME280;64052;47.466;9.094;2023-04-27T04:26:36;95774.84;;;13.18;61.38
46456;BME280;64052;47.466;9.094;2023-04-27T04:31:38;95784.19;;;13.22;61.14
46456;BME280;64052;47.466;9.094;2023-04-27T04:36:39;95789.84;;;13.27;61.34
46456;BME280;64052;47.466;9.094;2023-04-27T04:41:41;95789.28;;;13.52;60.41
46456;BME280;64052;47.466;9.094;2023-04-27T04:46:45;95779.84;;;13.49;59.85
46456;BME280;64052;47.466;9.094;2023-04-27T04:51:46;95778.25;;;13.56;60.45
46456;BME280;64052;47.466;9.094;2023-04-27T04:56:48;95782.81;;;13.46;61.92
46456;BME280;64052;47.466;9.094;2023-04-27T05:01:50;95773.88;;;13.65;61.13
46456;BME280;64052;47.466;9.094;2023-04-27T05:06:51;95790.06;;;13.44;61.00
46456;BME280;64052;47.466;9.094;2023-04-27T05:11:52;95787.06;;;13.29;61.12
46456;BME280;64052;47.466;9.094;2023-04-27T05:16:54;95788.19;;;13.26;62.09
46456;BME280;64052;47.466;9.094;2023-04-27T05:21:59;95787.13;;;13.47;62.10
46456;BME280;64052;47.466;9.094;2023-04-27T05:27:00;95788.50;;;13.23;62.66
46456;BME280;64052;47.466;9.094;2023-04-27T05:32:03;95789.72;;;13.29;62.80
46456;BME280;64052;47.466;9.094;2023-04-27T05:37:04;95790.94;;;13.34;62.03
46456;BME280;64052;47.466;9.094;2023-04-27T05:42:06;95786.66;;;13.52;62.08
46456;BME280;64052;47.466;9.094;2023-04-27T05:47:07;95792.56;;;13.45;61.36
46456;BME280;64052;47.466;9.094;2023-04-27T05:52:09;95794.84;;;13.58;61.75
46456;BME280;64052;47.466;9.094;2023-04-27T05:57:11;95808.00;;;13.68;61.54
46456;BME280;64052;47.466;9.094;2023-04-27T06:02:14;95803.38;;;13.52;62.81
46456;BME280;64052;47.466;9.094;2023-04-27T06:07:17;95795.13;;;13.73;62.26
46456;BME280;64052;47.466;9.094;2023-04-27T06:12:18;95809.22;;;13.74;61.61
46456;BME280;64052;47.466;9.094;2023-04-27T06:17:20;95809.91;;;13.76;61.96
46456;BME280;64052;47.466;9.094;2023-04-27T06:22:22;95810.50;;;13.70;62.20
46456;BME280;64052;47.466;9.094;2023-04-27T06:27:23;95822.78;;;13.71;62.30
46456;BME280;64052;47.466;9.094;2023-04-27T06:32:25;95817.16;;;13.74;61.30
46456;BME280;64052;47.466;9.094;2023-04-27T06:37:26;95824.13;;;13.75;60.93
46456;BME280;64052;47.466;9.094;2023-04-27T06:42:28;95825.66;;;13.77;59.64
46456;BME280;64052;47.466;9.094;2023-04-27T06:47:31;95825.94;;;13.74;59.85
46456;BME280;64052;47.466;9.094;2023-04-27T06:52:32;95830.25;;;13.94;59.89
46456;BME280;64052;47.466;9.094;2023-04-27T06:57:34;95829.41;;;14.11;59.87
46456;BME280;64052;47.466;9.094;2023-04-27T07:02:35;95830.16;;;14.22;60.15
46456;BME280;64052;47.466;9.094;2023-04-27T07:07:37;95837.25;;;14.39;58.93
46456;BME280;64052;47.466;9.094;2023-04-27T07:12:39;95841.19;;;14.35;60.02
46456;BME280;64052;47.466;9.094;2023-04-27T07:17:40;95848.59;;;14.50;59.32
46456;BME280;64052;47.466;9.094;2023-04-27T07:22:42;95847.81;;;14.57;58.99
46456;BME280;64052;47.466;9.094;2023-04-27T07:27:43;95853.13;;;14.57;59.12
46456;BME280;64052;47.466;9.094;2023-04-27T07:32:45;95857.06;;;14.53;59.72
46456;BME280;64052;47.466;9.094;2023-04-27T07:37:46;95846.56;;;14.70;59.93
46456;BME280;64052;47.466;9.094;2023-04-27T07:42:48;95846.66;;;14.78;59.96
46456;BME280;64052;47.466;9.094;2023-04-27T07:47:49;95845.53;;;14.89;60.33
46456;BME280;64052;47.466;9.094;2023-04-27T07:52:52;95852.50;;;14.90;60.76
46456;BME280;64052;47.466;9.094;2023-04-27T07:57:55;95847.88;;;14.92;59.62
46456;BME280;64052;47.466;9.094;2023-04-27T08:02:56;95863.22;;;15.07;60.37
46456;BME280;64052;47.466;9.094;2023-04-27T08:07:58;95854.81;;;15.20;59.90
46456;BME280;64052;47.466;9.094;2023-04-27T08:13:01;95855.19;;;15.33;59.85
46456;BME280;64052;47.466;9.094;2023-04-27T08:18:02;95848.75;;;15.52;59.92
46456;BME280;64052;47.466;9.094;2023-04-27T08:23:04;95844.81;;;15.56;58.87
46456;BME280;64052;47.466;9.094;2023-04-27T08:28:05;95839.84;;;15.70;58.77
46456;BME280;64052;47.466;9.094;2023-04-27T08:33:07;95837.88;;;15.88;57.76
46456;BME280;64052;47.466;9.094;2023-04-27T08:38:08;95842.91;;;16.08;57.05
46456;BME280;64052;47.466;9.094;2023-04-27T08:43:10;95830.28;;;16.10;55.44
46456;BME280;64052;47.466;9.094;2023-04-27T08:48:12;95831.09;;;16.27;54.75
46456;BME280;64052;47.466;9.094;2023-04-27T08:53:17;95841.72;;;16.61;55.73
46456;BME280;64052;47.466;9.094;2023-04-27T08:58:19;95836.72;;;16.57;54.89
46456;BME280;64052;47.466;9.094;2023-04-27T09:03:22;95843.84;;;16.82;54.56
46456;BME280;64052;47.466;9.094;2023-04-27T09:08:24;95840.75;;;17.18;56.29
46456;BME280;64052;47.466;9.094;2023-04-27T09:13:34;95826.59;;;17.18;51.63
46456;BME280;64052;47.466;9.094;2023-04-27T09:18:36;95821.91;;;17.28;50.60
46456;BME280;64052;47.466;9.094;2023-04-27T09:23:41;95815.19;;;17.64;50.47
46456;BME280;64052;47.466;9.094;2023-04-27T09:28:48;95813.97;;;17.98;50.34
46456;BME280;64052;47.466;9.094;2023-04-27T09:33:54;95817.91;;;18.10;47.65
46456;BME280;64052;47.466;9.094;2023-04-27T09:38:55;95809.63;;;18.05;48.74
46456;BME280;64052;47.466;9.094;2023-04-27T09:43:57;95804.69;;;17.94;47.49
46456;BME280;64052;47.466;9.094;2023-04-27T09:49:03;95797.81;;;18.00;48.69
46456;BME280;64052;47.466;9.094;2023-04-27T09:54:05;95793.00;;;18.18;50.29
46456;BME280;64052;47.466;9.094;2023-04-27T10:09:40;95796.09;;;18.60;50.28
46456;BME280;64052;47.466;9.094;2023-04-27T10:14:49;95795.75;;;18.78;49.62
46456;BME280;64052;47.466;9.094;2023-04-27T10:19:53;95785.28;;;18.77;49.01
46456;BME280;64052;47.466;9.094;2023-04-27T10:24:58;95791.25;;;18.79;50.08
46456;BME280;64052;47.466;9.094;2023-04-27T10:30:07;95787.44;;;18.88;47.82
46456;BME280;64052;47.466;9.094;2023-04-27T10:35:10;95792.72;;;18.96;48.50
46456;BME280;64052;47.466;9.094;2023-04-27T10:40:13;95795.13;;;18.91;46.33
46456;BME280;64052;47.466;9.094;2023-04-27T10:45:26;95785.00;;;18.87;46.15
46456;BME280;64052;47.466;9.094;2023-04-27T10:50:31;95788.75;;;18.77;45.55
46456;BME280;64052;47.466;9.094;2023-04-27T10:55:34;95791.91;;;18.96;47.18
46456;BME280;64052;47.466;9.094;2023-04-27T11:00:38;95786.06;;;19.22;48.02
46456;BME280;64052;47.466;9.094;2023-04-27T11:05:40;95784.00;;;19.40;46.44
46456;BME280;64052;47.466;9.094;2023-04-27T11:10:47;95784.69;;;19.63;46.16
46456;BME280;64052;47.466;9.094;2023-04-27T11:15:57;95785.53;;;19.64;45.90
46456;BME280;64052;47.466;9.094;2023-04-27T11:26:15;95774.44;;;19.67;42.53
46456;BME280;64052;47.466;9.094;2023-04-27T11:31:17;95779.66;;;19.75;44.24
46456;BME280;64052;47.466;9.094;2023-04-27T11:36:21;95783.13;;;19.91;42.52
46456;BME280;64052;47.466;9.094;2023-04-27T11:41:32;95782.56;;;19.96;43.96
46456;BME280;64052;47.466;9.094;2023-04-27T11:46:35;95777.06;;;19.60;43.42
46456;BME280;64052;47.466;9.094;2023-04-27T11:51:38;95776.09;;;19.68;43.43
46456;BME280;64052;47.466;9.094;2023-04-27T11:56:41;95774.41;;;19.82;44.79
46456;BME280;64052;47.466;9.094;2023-04-27T12:01:43;95778.84;;;20.18;44.02
46456;BME280;64052;47.466;9.094;2023-04-27T12:06:44;95772.97;;;20.30;43.00
46456;BME280;64052;47.466;9.094;2023-04-27T12:11:46;95764.13;;;20.29;43.83
46456;BME280;64052;47.466;9.094;2023-04-27T12:16:47;95758.25;;;20.19;42.43
46456;BME280;64052;47.466;9.094;2023-04-27T12:21:49;95758.22;;;20.41;42.73
46456;BME280;64052;47.466;9.094;2023-04-27T12:26:51;95752.72;;;20.20;41.39
46456;BME280;64052;47.466;9.094;2023-04-27T12:31:52;95753.63;;;20.06;40.01
46456;BME280;64052;47.466;9.094;2023-04-27T12:36:54;95745.84;;;19.89;42.59
46456;BME280;64052;47.466;9.094;2023-04-27T12:41:55;95744.84;;;20.12;43.17
46456;BME280;64052;47.466;9.094;2023-04-27T12:46:57;95744.00;;;20.40;43.59
46456;BME280;64052;47.466;9.094;2023-04-27T12:51:58;95735.47;;;20.58;40.84
46456;BME280;64052;47.466;9.094;2023-04-27T12:57:00;95738.50;;;20.48;40.34
46456;BME280;64052;47.466;9.094;2023-04-27T13:02:03;95737.13;;;20.59;39.89
46456;BME280;64052;47.466;9.094;2023-04-27T13:07:04;95736.41;;;20.79;38.94
46456;BME280;64052;47.466;9.094;2023-04-27T13:12:06;95733.97;;;20.84;38.44
46456;BME280;64052;47.466;9.094;2023-04-27T13:17:08;95719.59;;;20.92;38.78
46456;BME280;64052;47.466;9.094;2023-04-27T13:22:09;95711.66;;;21.12;40.38
46456;BME280;64052;47.466;9.094;2023-04-27T13:27:11;95702.38;;;21.22;37.00
46456;BME280;64052;47.466;9.094;2023-04-27T13:32:12;95693.50;;;21.14;37.48
46456;BME280;64052;47.466;9.094;2023-04-27T13:37:14;95699.31;;;21.25;39.22
46456;BME280;64052;47.466;9.094;2023-04-27T13:42:15;95698.75;;;21.56;37.14
46456;BME280;64052;47.466;9.094;2023-04-27T13:47:16;95698.09;;;21.41;38.18
46456;BME280;64052;47.466;9.094;2023-04-27T13:52:18;95704.09;;;21.43;37.40
46456;BME280;64052;47.466;9.094;2023-04-27T13:57:20;95701.44;;;21.50;36.11
46456;BME280;64052;47.466;9.094;2023-04-27T14:02:22;95699.56;;;21.43;35.76
46456;BME280;64052;47.466;9.094;2023-04-27T14:07:24;95709.03;;;21.39;36.47
46456;BME280;64052;47.466;9.094;2023-04-27T14:12:26;95708.09;;;21.05;36.18
46456;BME280;64052;47.466;9.094;2023-04-27T14:17:27;95704.78;;;20.96;35.52
46456;BME280;64052;47.466;9.094;2023-04-27T14:22:29;95703.31;;;20.94;34.55
46456;BME280;64052;47.466;9.094;2023-04-27T14:27:30;95699.34;;;21.38;38.89
46456;BME280;64052;47.466;9.094;2023-04-27T14:32:32;95694.63;;;21.54;37.34
46456;BME280;64052;47.466;9.094;2023-04-27T14:37:33;95701.03;;;21.53;37.03
46456;BME280;64052;47.466;9.094;2023-04-27T14:42:35;95696.66;;;21.38;40.96
46456;BME280;64052;47.466;9.094;2023-04-27T14:47:36;95696.63;;;21.18;39.70
46456;BME280;64052;47.466;9.094;2023-04-27T14:52:38;95703.22;;;21.22;41.37
46456;BME280;64052;47.466;9.094;2023-04-27T14:57:39;95702.97;;;21.10;42.12
46456;BME280;64052;47.466;9.094;2023-04-27T15:02:41;95703.03;;;21.30;42.07
46456;BME280;64052;47.466;9.094;2023-04-27T15:07:42;95691.84;;;21.13;40.53
46456;BME280;64052;47.466;9.094;2023-04-27T15:12:44;95692.34;;;20.82;41.71
46456;BME280;64052;47.466;9.094;2023-04-27T15:17:46;95693.41;;;20.87;41.20
46456;BME280;64052;47.466;9.094;2023-04-27T15:22:47;95696.78;;;20.68;40.63
46456;BME280;64052;47.466;9.094;2023-04-27T15:27:49;95690.81;;;20.30;42.05
46456;BME280;64052;47.466;9.094;2023-04-27T15:32:50;95693.41;;;20.17;41.54
46456;BME280;64052;47.466;9.094;2023-04-27T15:37:52;95703.72;;;20.20;40.68
46456;BME280;64052;47.466;9.094;2023-04-27T15:42:54;95702.19;;;20.39;40.12
46456;BME280;64052;47.466;9.094;2023-04-27T15:47:55;95695.94;;;20.67;39.98
46456;BME280;64052;47.466;9.094;2023-04-27T15:52:57;95688.16;;;20.72;40.60
46456;BME280;64052;47.466;9.094;2023-04-27T15:57:58;95674.53;;;20.74;39.56
46456;BME280;64052;47.466;9.094;2023-04-27T16:03:00;95670.66;;;20.76;40.03
46456;BME280;64052;47.466;9.094;2023-04-27T16:08:02;95665.34;;;20.83;39.09
46456;BME280;64052;47.466;9.094;2023-04-27T16:13:03;95649.56;;;21.02;38.75
46456;BME280;64052;47.466;9.094;2023-04-27T16:18:05;95642.53;;;20.94;39.22
46456;BME280;64052;47.466;9.094;2023-04-27T16:23:06;95645.78;;;20.83;40.21
46456;BME280;64052;47.466;9.094;2023-04-27T16:28:08;95644.06;;;20.75;40.02
46456;BME280;64052;47.466;9.094;2023-04-27T16:33:09;95646.63;;;20.55;39.74
46456;BME280;64052;47.466;9.094;2023-04-27T16:38:11;95641.28;;;20.55;39.75
46456;BME280;64052;47.466;9.094;2023-04-27T16:43:12;95639.47;;;20.62;40.25
46456;BME280;64052;47.466;9.094;2023-04-27T16:48:14;95641.09;;;20.56;40.35
46456;BME280;64052;47.466;9.094;2023-04-27T16:53:15;95633.41;;;20.40;39.80
46456;BME280;64052;47.466;9.094;2023-04-27T16:58:17;95642.28;;;20.47;40.78
46456;BME280;64052;47.466;9.094;2023-04-27T17:03:18;95646.34;;;20.36;39.91
46456;BME280;64052;47.466;9.094;2023-04-27T17:08:20;95654.31;;;20.22;40.07
46456;BME280;64052;47.466;9.094;2023-04-27T17:13:22;95654.22;;;20.09;42.84
46456;BME280;64052;47.466;9.094;2023-04-27T17:18:23;95661.50;;;19.93;41.92
46456;BME280;64052;47.466;9.094;2023-04-27T17:23:25;95657.09;;;19.86;44.10
46456;BME280;64052;47.466;9.094;2023-04-27T17:28:27;95669.66;;;19.85;43.59
46456;BME280;64052;47.466;9.094;2023-04-27T17:33:29;95665.75;;;19.59;43.84
46456;BME280;64052;47.466;9.094;2023-04-27T17:38:30;95669.91;;;19.40;44.88
46456;BME280;64052;47.466;9.094;2023-04-27T17:43:32;95664.50;;;19.33;44.39
46456;BME280;64052;47.466;9.094;2023-04-27T17:48:33;95670.75;;;19.26;44.54
46456;BME280;64052;47.466;9.094;2023-04-27T17:53:35;95670.66;;;18.97;45.04
46456;BME280;64052;47.466;9.094;2023-04-27T17:58:37;95673.44;;;18.89;44.92
46456;BME280;64052;47.466;9.094;2023-04-27T18:03:38;95681.94;;;18.77;45.58
46456;BME280;64052;47.466;9.094;2023-04-27T18:08:41;95684.06;;;18.52;46.28
46456;BME280;64052;47.466;9.094;2023-04-27T18:13:42;95684.34;;;18.42;45.96
46456;BME280;64052;47.466;9.094;2023-04-27T18:18:44;95682.78;;;18.18;46.78
46456;BME280;64052;47.466;9.094;2023-04-27T18:23:45;95690.84;;;18.09;46.72
46456;BME280;64052;47.466;9.094;2023-04-27T18:28:47;95699.53;;;17.88;45.97
46456;BME280;64052;47.466;9.094;2023-04-27T18:33:48;95709.78;;;17.76;46.10
46456;BME280;64052;47.466;9.094;2023-04-27T18:38:50;95715.31;;;17.75;45.67
46456;BME280;64052;47.466;9.094;2023-04-27T18:43:52;95724.13;;;17.75;45.25
46456;BME280;64052;47.466;9.094;2023-04-27T18:48:53;95715.38;;;17.66;46.48
46456;BME280;64052;47.466;9.094;2023-04-27T18:53:55;95712.16;;;17.24;47.45
46456;BME280;64052;47.466;9.094;2023-04-27T18:58:56;95720.03;;;17.18;47.88
46456;BME280;64052;47.466;9.094;2023-04-27T19:03:58;95718.63;;;16.98;48.66
46456;BME280;64052;47.466;9.094;2023-04-27T19:09:00;95718.41;;;17.08;48.37
46456;BME280;64052;47.466;9.094;2023-04-27T19:14:01;95715.94;;;16.98;48.65
46456;BME280;64052;47.466;9.094;2023-04-27T19:19:03;95719.72;;;16.81;49.79
46456;BME280;64052;47.466;9.094;2023-04-27T19:24:04;95716.56;;;16.69;49.92
46456;BME280;64052;47.466;9.094;2023-04-27T19:29:06;95718.56;;;16.75;49.98
46456;BME280;64052;47.466;9.094;2023-04-27T19:34:07;95727.38;;;16.76;50.99
46456;BME280;64052;47.466;9.094;2023-04-27T19:39:09;95723.69;;;16.77;50.22
46456;BME280;64052;47.466;9.094;2023-04-27T19:44:10;95728.00;;;16.78;50.73
46456;BME280;64052;47.466;9.094;2023-04-27T19:49:12;95724.69;;;16.84;51.49
46456;BME280;64052;47.466;9.094;2023-04-27T19:54:14;95720.28;;;17.08;51.35
46456;BME280;64052;47.466;9.094;2023-04-27T19:59:16;95726.75;;;17.05;50.82
46456;BME280;64052;47.466;9.094;2023-04-27T20:04:17;95714.22;;;17.14;50.68
46456;BME280;64052;47.466;9.094;2023-04-27T20:09:19;95710.31;;;16.93;50.73
46456;BME280;64052;47.466;9.094;2023-04-27T20:14:21;95703.63;;;16.66;51.38
46456;BME280;64052;47.466;9.094;2023-04-27T20:19:23;95703.72;;;16.33;52.63
46456;BME280;64052;47.466;9.094;2023-04-27T20:24:24;95696.09;;;16.29;53.11
46456;BME280;64052;47.466;9.094;2023-04-27T20:29:26;95697.69;;;16.47;52.67
46456;BME280;64052;47.466;9.094;2023-04-27T20:34:27;95691.13;;;16.66;52.05
46456;BME280;64052;47.466;9.094;2023-04-27T20:39:28;95693.50;;;16.61;52.52
46456;BME280;64052;47.466;9.094;2023-04-27T20:44:30;95689.34;;;16.58;52.15
46456;BME280;64052;47.466;9.094;2023-04-27T20:49:31;95686.28;;;16.70;51.92
46456;BME280;64052;47.466;9.094;2023-04-27T20:54:36;95686.81;;;16.65;51.96
46456;BME280;64052;47.466;9.094;2023-04-27T20:59:38;95680.34;;;16.60;52.25
46456;BME280;64052;47.466;9.094;2023-04-27T21:04:39;95685.38;;;16.46;52.82
46456;BME280;64052;47.466;9.094;2023-04-27T21:09:41;95674.81;;;16.29;52.74
46456;BME280;64052;47.466;9.094;2023-04-27T21:14:43;95674.66;;;16.23;53.13
46456;BME280;64052;47.466;9.094;2023-04-27T21:19:44;95666.53;;;16.08;53.30
46456;BME280;64052;47.466;9.094;2023-04-27T21:24:46;95670.72;;;16.02;53.45
46456;BME280;64052;47.466;9.094;2023-04-27T21:29:48;95673.03;;;15.88;54.71
46456;BME280;64052;47.466;9.094;2023-04-27T21:34:49;95672.06;;;15.98;54.64
46456;BME280;64052;47.466;9.094;2023-04-27T21:39:51;95665.75;;;15.91;54.44
46456;BME280;64052;47.466;9.094;2023-04-27T21:44:52;95658.09;;;15.79;54.57
46456;BME280;64052;47.466;9.094;2023-04-27T21:49:54;95656.13;;;15.73;55.12
46456;BME280;64052;47.466;9.094;2023-04-27T21:54:55;95652.16;;;15.69;55.45
46456;BME280;64052;47.466;9.094;2023-04-27T21:59:57;95663.41;;;15.79;55.06
46456;BME280;64052;47.466;9.094;2023-04-27T22:04:59;95662.44;;;15.72;54.96
46456;BME280;64052;47.466;9.094;2023-04-27T22:10:02;95667.75;;;15.72;55.39
46456;BME280;64052;47.466;9.094;2023-04-27T22:15:04;95668.09;;;15.69;55.65
46456;BME280;64052;47.466;9.094;2023-04-27T22:20:06;95662.13;;;15.58;55.60
46456;BME280;64052;47.466;9.094;2023-04-27T22:25:10;95674.06;;;15.54;56.03
46456;BME280;64052;47.466;9.094;2023-04-27T22:30:12;95664.28;;;15.55;55.85
46456;BME280;64052;47.466;9.094;2023-04-27T22:35:14;95642.47;;;15.76;54.57
46456;BME280;64052;47.466;9.094;2023-04-27T22:40:27;95631.19;;;15.99;54.35
46456;BME280;64052;47.466;9.094;2023-04-27T22:45:29;95629.16;;;16.01;54.39
46456;BME280;64052;47.466;9.094;2023-04-27T22:50:31;95631.03;;;15.92;54.79
46456;BME280;64052;47.466;9.094;2023-04-27T22:55:32;95631.81;;;16.01;54.74
46456;BME280;64052;47.466;9.094;2023-04-27T23:00:34;95630.84;;;15.77;55.29
46456;BME280;64052;47.466;9.094;2023-04-27T23:05:36;95631.03;;;15.67;55.47
46456;BME280;64052;47.466;9.094;2023-04-27T23:10:37;95635.38;;;15.52;56.03
46456;BME280;64052;47.466;9.094;2023-04-27T23:15:39;95633.72;;;15.51;56.08
46456;BME280;64052;47.466;9.094;2023-04-27T23:20:40;95636.56;;;15.32;56.11
46456;BME280;64052;47.466;9.094;2023-04-27T23:25:42;95631.22;;;15.41;55.58
46456;BME280;64052;47.466;9.094;2023-04-27T23:30:51;95636.53;;;15.49;55.35
46456;BME280;64052;47.466;9.094;2023-04-27T23:35:52;95621.91;;;15.62;54.91
46456;BME280;64052;47.466;9.094;2023-04-27T23:40:56;95628.56;;;15.57;54.88
46456;BME280;64052;47.466;9.094;2023-04-27T23:45:58;95616.59;;;15.28;55.01
46456;BME280;64052;47.466;9.094;2023-04-27T23:51:00;95607.63;;;15.63;54.60
46456;BME280;64052;47.466;9.094;2023-04-27T23:56:02;95606.63;;;15.55;54.71
